Time;durP1;ratioP1;P1;durP2;ratioP2;P2;SDS_P1;SDS_P2;PMS_P1;PMS_P2;Temp;Humidity;BMP_temperature;BMP_pressure;BME280_temperature;BME280_humidity;BME280_pressure;Samples;Min_cycle;Max_cycle;Signal;HPM_P1;HPM_P2
2021/12/13 00:02:24;;;;;;;60.35;31.70;;;;;;;9.04;100.00;102427.78;6218647;23;20254;-61
2021/12/13 00:04:56;;;;;;;62.33;32.23;;;;;;;9.06;100.00;102423.47;6218208;23;20304;-61
2021/12/13 00:07:29;;;;;;;63.95;32.13;;;;;;;8.99;100.00;102405.06;6218745;23;20327;-61
2021/12/13 00:09:58;;;;;;;65.07;32.50;;;;;;;9.04;100.00;102416.44;6218072;23;20075;-62
2021/12/13 00:12:33;;;;;;;64.05;32.85;;;;;;;9.02;100.00;102424.25;6218221;23;20012;-61
2021/12/13 00:15:00;;;;;;;60.80;31.35;;;;;;;8.99;100.00;102419.00;6218797;23;20283;-61
2021/12/13 00:17:46;;;;;;;61.30;32.13;;;;;;;9.01;100.00;102416.38;6218226;23;20008;-61
2021/12/13 00:20:27;;;;;;;58.38;30.52;;;;;;;8.98;100.00;102425.06;6218509;23;20099;-62
2021/12/13 00:22:54;;;;;;;61.75;31.52;;;;;;;8.96;100.00;102420.66;6218575;23;20016;-61
2021/12/13 00:25:25;;;;;;;58.88;30.83;;;;;;;8.96;100.00;102418.94;6218851;23;20078;-61
2021/12/13 00:27:58;;;;;;;58.33;31.30;;;;;;;8.99;100.00;102420.72;6218622;23;20008;-61
2021/12/13 00:30:26;;;;;;;59.15;31.08;;;;;;;8.75;100.00;102383.72;6217865;23;20083;-61
2021/12/13 00:33:28;;;;;;;57.85;31.15;;;;;;;9.04;100.00;102424.28;6218204;23;20011;-61
2021/12/13 00:36:03;;;;;;;;;;;;;;;8.99;100.00;102421.63;6218839;23;20024;-61
2021/12/13 00:38:34;;;;;;;53.13;27.55;;;;;;;9.00;100.00;102427.72;6217938;23;19950;-61
2021/12/13 00:41:09;;;;;;;61.15;29.33;;;;;;;8.93;100.00;102421.50;6219166;23;20016;-61
2021/12/13 00:43:51;;;;;;;53.67;28.85;;;;;;;8.97;100.00;102427.66;6218165;23;20028;-61
2021/12/13 00:46:18;;;;;;;55.45;29.20;;;;;;;8.93;100.00;102437.16;6218032;23;20004;-61
2021/12/13 00:48:48;;;;;;;52.15;28.05;;;;;;;8.86;100.00;102419.59;6218100;23;20028;-61
2021/12/13 00:51:15;;;;;;;58.83;28.98;;;;;;;8.94;100.00;102445.88;6218118;23;20015;-61
2021/12/13 00:53:47;;;;;;;53.78;29.27;;;;;;;8.92;100.00;102431.91;6217896;23;20079;-61
2021/12/13 00:56:50;;;;;;;61.17;29.30;;;;;;;8.90;100.00;102434.47;6218002;23;20001;-61
2021/12/13 00:59:40;;;;;;;53.75;28.08;;;;;;;8.87;100.00;102437.03;6218009;23;20058;-62
2021/12/13 01:02:28;;;;;;;65.15;29.25;;;;;;;8.89;100.00;102437.94;6217799;23;20075;-61
2021/12/13 01:05:05;;;;;;;59.38;29.27;;;;;;;8.89;100.00;102439.66;6217294;23;20047;-61
2021/12/13 01:07:33;;;;;;;55.88;28.48;;;;;;;8.90;100.00;102442.31;6217313;23;20015;-61
2021/12/13 01:10:28;;;;;;;55.97;28.45;;;;;;;8.89;100.00;102451.00;6217194;23;20008;-61
2021/12/13 01:12:55;;;;;;;58.17;28.10;;;;;;;8.85;100.00;102454.38;6217148;23;20405;-62
2021/12/13 01:15:34;;;;;;;55.25;28.88;;;;;;;8.73;100.00;102428.94;6216725;23;20013;-62
2021/12/13 01:18:23;;;;;;;57.60;28.45;;;;;;;8.80;100.00;102442.13;6217559;23;20016;-62
2021/12/13 01:21:31;;;;;;;60.95;29.45;;;;;;;8.82;100.00;102440.41;6217280;23;20004;-61
2021/12/13 01:24:06;;;;;;;57.85;28.13;;;;;;;8.69;100.00;102429.72;6218663;23;20023;-61
2021/12/13 01:26:39;;;;;;;58.20;28.73;;;;;;;8.82;100.00;102448.25;6217999;23;20088;-62
2021/12/13 01:29:15;;;;;;;53.80;28.73;;;;;;;8.81;100.00;102451.72;6217542;23;20410;-63
2021/12/13 01:32:06;;;;;;;59.38;28.77;;;;;;;8.79;100.00;102450.78;6217444;23;20405;-62
2021/12/13 01:34:36;;;;;;;62.97;29.25;;;;;;;8.79;100.00;102453.41;6217718;23;20016;-62
2021/12/13 01:37:13;;;;;;;60.47;29.60;;;;;;;8.76;100.00;102453.34;6217814;23;20047;-62
2021/12/13 01:39:52;;;;;;;65.15;29.85;;;;;;;8.79;100.00;102463.84;6217538;23;20020;-63
2021/12/13 01:42:26;;;;;;;60.92;29.50;;;;;;;8.78;100.00;102462.09;6218373;23;20001;-62
2021/12/13 01:44:55;;;;;;;63.95;29.30;;;;;;;8.75;100.00;102469.84;6217767;23;20005;-62
2021/12/13 01:47:28;;;;;;;63.97;29.92;;;;;;;8.73;100.00;102460.25;6217731;23;20019;-62
2021/12/13 01:50:07;;;;;;;65.10;30.80;;;;;;;8.73;100.00;102465.47;6217461;23;20019;-62
2021/12/13 01:52:37;;;;;;;62.22;28.70;;;;;;;8.77;100.00;102471.66;6217809;23;20032;-62
2021/12/13 01:55:13;;;;;;;63.97;29.67;;;;;;;8.73;100.00;102468.09;6217817;23;20006;-62
2021/12/13 01:57:46;;;;;;;61.85;29.98;;;;;;;8.72;100.00;102479.38;6217295;23;20398;-62
2021/12/13 02:00:18;;;;;;;66.68;31.13;;;;;;;8.73;100.00;102469.81;6217677;23;20402;-62
2021/12/13 02:02:52;;;;;;;64.65;30.02;;;;;;;8.75;100.00;102472.44;6217620;23;20009;-62
2021/12/13 02:05:17;;;;;;;57.35;29.85;;;;;;;8.73;100.00;102472.41;6217489;23;20028;-61
2021/12/13 02:08:01;;;;;;;57.53;29.70;;;;;;;8.77;100.00;102474.25;6217559;23;20394;-62
2021/12/13 02:10:29;;;;;;;66.75;31.42;;;;;;;8.69;100.00;102488.84;6217554;23;20005;-62
2021/12/13 02:13:02;;;;;;;61.20;29.77;;;;;;;8.75;100.00;102482.91;6216839;23;20012;-62
2021/12/13 02:18:23;;;;;;;61.22;29.67;;;;;;;8.62;100.00;102455.69;6216903;23;20026;-61
2021/12/13 02:21:01;;;;;;;63.80;31.45;;;;;;;8.72;100.00;102471.53;6217406;23;20005;-61
2021/12/13 02:23:27;;;;;;;63.10;30.05;;;;;;;8.74;100.00;102466.34;6216927;23;20000;-63
2021/12/13 02:25:55;;;;;;;65.10;32.20;;;;;;;8.70;100.00;102459.31;6217051;23;20283;-62
2021/12/13 02:28:24;;;;;;;63.17;30.55;;;;;;;8.68;100.00;102459.28;6217030;23;20000;-62
2021/12/13 02:30:54;;;;;;;65.40;32.47;;;;;;;8.67;100.00;102454.03;6217092;23;20016;-62
2021/12/13 02:33:30;;;;;;;69.00;32.35;;;;;;;8.71;100.00;102455.84;6216673;23;20350;-62
2021/12/13 02:36:17;;;;;;;59.00;30.73;;;;;;;8.67;100.00;102470.56;6216906;23;20012;-62
2021/12/13 02:38:46;;;;;;;59.05;29.83;;;;;;;8.69;100.00;102470.59;6216973;23;20004;-62
2021/12/13 02:41:13;;;;;;;58.35;29.17;;;;;;;8.72;100.00;102475.88;6217096;23;20410;-62
2021/12/13 02:43:42;;;;;;;57.20;29.55;;;;;;;8.66;100.00;102484.44;6217253;23;20079;-62
2021/12/13 02:46:08;;;;;;;58.95;29.27;;;;;;;8.67;100.00;102469.69;6217149;23;20054;-62
2021/12/13 02:48:50;;;;;;;60.20;29.85;;;;;;;8.65;100.00;102480.13;6216920;23;20330;-62
2021/12/13 02:51:26;;;;;;;58.65;29.40;;;;;;;8.62;100.00;102476.56;6217491;23;20015;-62
2021/12/13 02:54:10;;;;;;;60.47;30.13;;;;;;;8.65;100.00;102474.91;6217091;23;20004;-62
2021/12/13 02:56:42;;;;;;;62.40;30.02;;;;;;;8.63;100.00;102476.59;6217193;23;20104;-62
2021/12/13 02:59:08;;;;;;;58.33;29.17;;;;;;;8.63;100.00;102473.09;6217199;23;20005;-61
2021/12/13 03:01:39;;;;;;;62.28;29.85;;;;;;;8.61;100.00;102475.66;6216987;23;20297;-62
2021/12/13 03:04:10;;;;;;;60.08;29.63;;;;;;;8.63;100.00;102475.72;6216871;23;20290;-62
2021/12/13 03:06:47;;;;;;;58.53;29.88;;;;;;;8.61;100.00;102480.00;6217049;23;20019;-62
2021/12/13 03:09:16;;;;;;;61.97;28.63;;;;;;;8.62;100.00;102474.81;6217000;23;20040;-63
2021/12/13 03:11:44;;;;;;;59.25;29.05;;;;;;;8.59;100.00;102472.16;6217291;23;20024;-62
2021/12/13 03:14:14;;;;;;;63.25;29.30;;;;;;;8.62;100.00;102474.81;6217106;23;20036;-61
2021/12/13 03:16:51;;;;;;;58.80;27.52;;;;;;;8.68;100.00;102482.75;6217807;23;20071;-62
2021/12/13 03:19:31;;;;;;;57.17;29.17;;;;;;;8.61;100.00;102475.66;6216770;23;20004;-61
2021/12/13 03:22:14;;;;;;;58.45;28.98;;;;;;;8.51;100.00;102449.34;6216556;23;20078;-62
2021/12/13 03:25:04;;;;;;;53.95;27.58;;;;;;;8.58;100.00;102474.72;6216607;23;20075;-62
2021/12/13 03:27:33;;;;;;;54.78;27.75;;;;;;;8.63;100.00;102473.09;6217209;23;20019;-61
2021/12/13 03:30:32;;;;;;;54.75;27.58;;;;;;;8.63;100.00;102473.09;6218654;23;20016;-62
2021/12/13 03:33:01;;;;;;;58.60;28.08;;;;;;;8.62;100.00;102476.56;6218553;23;20353;-62
2021/12/13 03:35:53;;;;;;;58.80;28.23;;;;;;;8.53;100.00;102465.91;6218835;23;20282;-61
2021/12/13 03:38:28;;;;;;;58.78;28.15;;;;;;;8.54;100.00;102480.72;6217773;23;20020;-62
2021/12/13 03:40:59;;;;;;;59.72;28.20;;;;;;;8.54;100.00;102479.00;6218442;23;20035;-62
2021/12/13 03:43:33;;;;;;;57.78;27.98;;;;;;;8.56;100.00;102479.91;6219055;23;20083;-62
2021/12/13 03:46:03;;;;;;;57.17;27.77;;;;;;;8.57;100.00;102484.28;6218199;23;20395;-62
2021/12/13 03:48:30;;;;;;;57.03;27.60;;;;;;;8.53;100.00;102477.22;6218563;23;20004;-62
2021/12/13 03:51:01;;;;;;;56.90;27.45;;;;;;;8.52;100.00;102474.59;6218873;23;20085;-62
2021/12/13 03:53:31;;;;;;;54.92;27.80;;;;;;;8.56;100.00;102472.06;6218443;23;20009;-62
2021/12/13 03:56:03;;;;;;;57.30;27.58;;;;;;;8.56;100.00;102481.63;6218586;23;20009;-62
2021/12/13 03:58:36;;;;;;;52.33;27.35;;;;;;;8.57;100.00;102486.88;6218113;23;20365;-62
2021/12/13 04:01:12;;;;;;;61.63;27.90;;;;;;;8.55;100.00;102485.97;6218465;23;20283;-62
2021/12/13 04:03:41;;;;;;;57.45;27.40;;;;;;;8.55;100.00;102485.97;6218297;23;20055;-62
2021/12/13 04:06:06;;;;;;;53.70;25.25;;;;;;;8.59;100.00;102486.91;6218922;23;20008;-62
2021/12/13 04:08:32;;;;;;;56.72;27.65;;;;;;;8.51;100.00;102478.91;6218191;23;20000;-61
2021/12/13 04:11:02;;;;;;;54.42;25.95;;;;;;;8.55;100.00;102478.16;6218438;23;20399;-62
2021/12/13 04:13:36;;;;;;;56.33;27.13;;;;;;;8.56;100.00;102479.03;6218173;23;20394;-62
2021/12/13 04:16:15;;;;;;;57.47;27.05;;;;;;;8.53;100.00;102477.22;6218198;23;20011;-62
2021/12/13 04:21:57;;;;;;;50.63;25.23;;;;;;;8.65;100.00;102482.72;6217596;23;20460;-62
2021/12/13 04:24:34;;;;;;;55.08;26.38;;;;;;;8.57;100.00;102491.22;6209490;23;20099;-62
2021/12/13 04:27:07;;;;;;;51.85;25.38;;;;;;;8.53;100.00;102489.38;6219022;23;20024;-62
2021/12/13 04:29:38;;;;;;;53.15;25.15;;;;;;;8.53;100.00;102487.66;6218285;23;20083;-62
2021/12/13 04:32:25;;;;;;;54.65;27.17;;;;;;;8.55;100.00;102485.09;6218156;23;20079;-62
2021/12/13 04:34:57;;;;;;;55.38;25.67;;;;;;;8.55;100.00;102487.69;6217514;23;20043;-62
2021/12/13 04:37:27;;;;;;;47.22;24.10;;;;;;;8.49;100.00;102478.00;6217501;23;20410;-62
2021/12/13 04:39:59;;;;;;;48.70;24.52;;;;;;;8.53;100.00;102494.59;6216816;23;20283;-62
2021/12/13 04:42:27;;;;;;;46.10;23.38;;;;;;;8.51;100.00;102483.25;6218107;23;20011;-62
2021/12/13 04:45:08;;;;;;;51.72;24.85;;;;;;;8.34;100.00;102459.41;6217782;23;20398;-62
2021/12/13 04:47:54;;;;;;;50.10;24.77;;;;;;;8.48;100.00;102491.94;6217386;23;20012;-62
2021/12/13 04:50:34;;;;;;;47.78;24.20;;;;;;;8.54;100.00;102489.44;6218711;23;20008;-62
2021/12/13 04:53:01;;;;;;;47.97;23.80;;;;;;;8.49;100.00;102490.16;6218180;23;20004;-62
2021/12/13 04:55:34;;;;;;;47.05;24.58;;;;;;;8.49;100.00;102479.72;6217919;23;20005;-62
2021/12/13 04:58:02;;;;;;;46.90;23.17;;;;;;;8.49;100.00;102475.41;6217779;23;20054;-62
2021/12/13 05:00:32;;;;;;;44.85;22.50;;;;;;;8.51;100.00;102475.44;6218087;23;20008;-62
2021/12/13 05:03:02;;;;;;;42.60;21.73;;;;;;;8.53;100.00;102474.63;6217913;23;20039;-62
2021/12/13 05:05:29;;;;;;;45.75;22.30;;;;;;;8.56;100.00;102479.03;6218148;23;20019;-62
2021/12/13 05:07:55;;;;;;;39.05;21.27;;;;;;;8.59;100.00;102485.19;6217798;23;20011;-61
2021/12/13 05:10:25;;;;;;;41.75;20.00;;;;;;;8.50;100.00;102487.59;6217940;23;20008;-63
2021/12/13 05:13:13;;;;;;;44.47;21.92;;;;;;;8.55;100.00;102485.09;6218111;23;20140;-62
2021/12/13 05:15:41;;;;;;;45.45;22.40;;;;;;;8.52;100.00;102487.63;6217810;23;20363;-62
2021/12/13 05:18:15;;;;;;;43.40;22.10;;;;;;;8.48;100.00;102485.81;6218631;23;20008;-62
2021/12/13 05:20:41;;;;;;;45.55;22.27;;;;;;;8.49;100.00;102490.16;6217824;23;20062;-62
2021/12/13 05:23:11;;;;;;;41.03;20.92;;;;;;;8.52;100.00;102493.72;6217637;23;20075;-61
2021/12/13 05:25:40;;;;;;;44.25;22.55;;;;;;;8.50;100.00;102491.94;6218000;23;20016;-62
2021/12/13 05:28:05;;;;;;;50.13;23.65;;;;;;;8.48;100.00;102502.34;6217829;23;20004;-62
2021/12/13 05:30:33;;;;;;;42.27;21.50;;;;;;;8.46;100.00;102487.50;6217632;23;20008;-61
2021/12/13 05:33:06;;;;;;;42.45;21.85;;;;;;;8.36;100.00;102476.88;6217155;23;20698;-62
2021/12/13 05:35:43;;;;;;;40.47;21.20;;;;;;;8.47;100.00;102492.78;6216953;23;20008;-62
2021/12/13 05:38:22;;;;;;;43.70;21.58;;;;;;;8.40;100.00;102487.38;6217273;23;20288;-62
2021/12/13 05:40:47;;;;;;;39.80;21.05;;;;;;;8.45;100.00;102493.56;6217254;23;20024;-61
2021/12/13 05:43:18;;;;;;;45.25;21.48;;;;;;;8.48;100.00;102497.16;6217244;23;20000;-62
2021/12/13 05:45:49;;;;;;;39.20;21.02;;;;;;;8.43;100.00;102500.50;6217414;23;20009;-62
2021/12/13 05:48:38;;;;;;;36.53;20.25;;;;;;;8.49;100.00;102496.25;6216989;23;20005;-62
2021/12/13 05:51:17;;;;;;;36.72;19.55;;;;;;;8.44;100.00;102491.81;6216386;23;20063;-62
2021/12/13 05:53:45;;;;;;;39.95;20.05;;;;;;;8.48;100.00;102494.53;6216852;23;20004;-62
2021/12/13 05:56:15;;;;;;;37.50;20.10;;;;;;;8.46;100.00;102490.13;6216974;23;20095;-62
2021/12/13 05:58:57;;;;;;;41.47;20.50;;;;;;;8.45;100.00;102494.47;6217365;23;20016;-61
2021/12/13 06:01:36;;;;;;;41.13;19.77;;;;;;;8.45;100.00;102491.84;6217408;23;20005;-61
2021/12/13 06:04:28;;;;;;;37.47;19.40;;;;;;;8.44;100.00;102491.81;6217883;23;20440;-67
2021/12/13 06:06:55;;;;;;;34.95;18.25;;;;;;;8.39;100.00;102499.53;6216774;23;20637;-62
2021/12/13 06:09:45;;;;;;;35.20;18.73;;;;;;;8.45;100.00;102499.69;6217178;23;20004;-68
2021/12/13 06:12:47;;;;;;;37.95;19.48;;;;;;;8.44;100.00;102507.47;6217197;23;20289;-71
2021/12/13 06:15:15;;;;;;;38.45;19.25;;;;;;;8.43;100.00;102503.09;6216016;23;20017;-71
2021/12/13 06:17:48;;;;;;;34.40;19.00;;;;;;;8.44;100.00;102504.84;6216731;23;20024;-71
2021/12/13 06:20:20;;;;;;;33.15;17.45;;;;;;;8.38;100.00;102506.47;6217503;23;20023;-71
2021/12/13 06:22:47;;;;;;;31.85;17.15;;;;;;;8.38;100.00;102503.88;6217567;23;20009;-73
2021/12/13 06:25:18;;;;;;;34.40;17.25;;;;;;;8.42;100.00;102514.38;6216914;23;20043;-72
2021/12/13 06:27:49;;;;;;;33.38;17.65;;;;;;;8.38;100.00;102508.19;6217365;23;20099;-71
2021/12/13 06:30:21;;;;;;;34.00;17.27;;;;;;;8.35;100.00;102513.34;6217253;23;20001;-71
2021/12/13 06:33:02;;;;;;;36.05;18.35;;;;;;;8.38;100.00;102513.41;6217457;23;20012;-72
2021/12/13 06:35:35;;;;;;;34.35;18.10;;;;;;;8.32;100.00;102510.66;6216904;23;20374;-72
2021/12/13 06:38:42;;;;;;;34.70;18.33;;;;;;;8.36;100.00;102515.09;6217053;23;20013;-72
2021/12/13 06:41:16;;;;;;;32.35;17.70;;;;;;;8.37;100.00;102527.31;6217489;23;20390;-62
2021/12/13 06:43:47;;;;;;;30.20;17.33;;;;;;;8.33;100.00;102525.47;6216336;23;20414;-66
2021/12/13 06:46:22;;;;;;;32.30;17.08;;;;;;;8.40;100.00;102530.00;6216397;23;20017;-67
2021/12/13 06:48:54;;;;;;;29.38;16.50;;;;;;;8.32;100.00;102521.09;6216598;23;20062;-65
2021/12/13 06:51:35;;;;;;;34.20;17.67;;;;;;;8.30;100.00;102525.38;6216669;23;20084;-65
2021/12/13 06:54:06;;;;;;;33.03;16.73;;;;;;;8.33;100.00;102523.75;6217220;23;20008;-68
2021/12/13 06:56:34;;;;;;;33.80;16.77;;;;;;;8.28;100.00;102519.25;6216997;23;20012;-66
2021/12/13 06:59:06;;;;;;;27.25;15.43;;;;;;;8.43;100.00;102529.19;6217194;23;20008;-66
2021/12/13 07:01:33;;;;;;;28.85;15.82;;;;;;;8.34;100.00;102538.53;6217435;23;20016;-66
2021/12/13 07:04:17;;;;;;;33.78;16.77;;;;;;;8.45;100.00;102543.16;6218764;23;20004;-66
2021/12/13 07:06:42;;;;;;;29.25;15.93;;;;;;;8.33;100.00;102542.00;6219493;23;20310;-67
2021/12/13 07:09:19;;;;;;;30.33;15.85;;;;;;;8.34;100.00;102542.88;6219560;23;20012;-67
2021/12/13 07:11:52;;;;;;;30.50;16.33;;;;;;;8.34;100.00;102548.09;6219672;23;20019;-66
2021/12/13 07:14:21;;;;;;;29.42;16.38;;;;;;;8.36;100.00;102546.41;6219544;23;20015;-67
2021/12/13 07:16:52;;;;;;;31.85;17.45;;;;;;;8.39;100.00;102546.50;6219442;23;20012;-66
2021/12/13 07:19:27;;;;;;;31.42;16.40;;;;;;;8.37;100.00;102546.44;6219837;23;20301;-65
2021/12/13 07:22:01;;;;;;;29.20;16.20;;;;;;;8.36;100.00;102544.69;6219183;23;20005;-65
2021/12/13 07:24:32;;;;;;;35.10;17.95;;;;;;;8.32;100.00;102555.00;6219549;23;20248;-67
2021/12/13 07:27:13;;;;;;;33.05;17.60;;;;;;;8.29;100.00;102549.72;6219397;23;20092;-66
2021/12/13 07:29:43;;;;;;;28.17;15.90;;;;;;;8.36;100.00;102562.94;6219306;23;20001;-66
2021/12/13 07:32:14;;;;;;;30.08;17.55;;;;;;;8.33;100.00;102560.25;6219138;23;20346;-64
2021/12/13 07:34:53;;;;;;;26.50;15.50;;;;;;;8.43;100.00;102553.53;6218428;23;20073;-66
2021/12/13 07:37:39;;;;;;;28.17;16.33;;;;;;;8.36;100.00;102562.06;6218526;23;20267;-65
2021/12/13 07:40:37;;;;;;;28.08;16.13;;;;;;;8.36;100.00;102562.06;6218737;23;20016;-66
2021/12/13 07:43:21;;;;;;;30.60;16.80;;;;;;;8.36;100.00;102560.34;6218814;23;20012;-66
2021/12/13 07:45:50;;;;;;;28.15;16.10;;;;;;;8.41;100.00;102563.06;6218437;23;20353;-66
2021/12/13 07:48:27;;;;;;;30.13;17.25;;;;;;;8.38;100.00;102555.16;6218206;23;20422;-65
2021/12/13 07:51:15;;;;;;;31.63;16.02;;;;;;;8.51;100.00;102566.75;6218561;23;20287;-63
2021/12/13 07:54:14;;;;;;;32.35;16.27;;;;;;;8.45;100.00;102567.50;6217980;23;20016;-64
2021/12/13 07:57:02;;;;;;;30.33;17.02;;;;;;;8.43;100.00;102570.91;6205294;23;20013;-64
2021/12/13 07:59:33;;;;;;;32.08;17.80;;;;;;;8.42;100.00;102574.38;6217550;23;20079;-64
2021/12/13 08:02:18;;;;;;;31.15;17.15;;;;;;;8.38;100.00;102582.13;6218613;23;20004;-64
2021/12/13 08:04:49;;;;;;;31.02;15.55;;;;;;;8.44;100.00;102576.19;6218641;23;20032;-63
2021/12/13 08:07:21;;;;;;;28.83;16.52;;;;;;;8.42;100.00;102572.66;6218688;23;20005;-64
2021/12/13 08:09:50;;;;;;;27.67;15.45;;;;;;;8.49;100.00;102573.66;6218095;23;20428;-64
2021/12/13 08:12:20;;;;;;;31.10;17.67;;;;;;;8.45;100.00;102571.84;6218472;23;20112;-63
2021/12/13 08:14:48;;;;;;;28.75;16.70;;;;;;;8.44;100.00;102572.69;6218196;23;20382;-63
2021/12/13 08:17:56;;;;;;;25.80;15.70;;;;;;;8.51;100.00;102578.06;6218241;23;20309;-63
2021/12/13 08:20:40;;;;;;;25.15;15.27;;;;;;;8.48;100.00;102577.13;6218280;23;20008;-64
2021/12/13 08:23:15;;;;;;;27.27;16.70;;;;;;;8.53;100.00;102580.72;6218403;23;20005;-63
2021/12/13 08:25:41;;;;;;;27.20;15.57;;;;;;;8.47;100.00;102572.75;6218564;23;20012;-63
2021/12/13 08:28:11;;;;;;;28.48;17.35;;;;;;;8.44;100.00;102575.28;6218636;23;20054;-61
2021/12/13 08:30:52;;;;;;;28.98;16.70;;;;;;;8.47;100.00;102570.16;6218006;23;20005;-63
2021/12/13 08:33:32;;;;;;;26.15;16.23;;;;;;;8.49;100.00;102574.53;6217370;23;20080;-63
2021/12/13 08:36:09;;;;;;;26.20;15.95;;;;;;;8.53;100.00;102578.09;6218287;23;20010;-63
2021/12/13 08:39:05;;;;;;;27.42;15.48;;;;;;;8.54;100.00;102574.66;6218761;23;20012;-63
2021/12/13 08:41:38;;;;;;;25.33;15.82;;;;;;;8.52;100.00;102574.59;6218596;23;20016;-63
2021/12/13 08:44:10;;;;;;;24.98;14.55;;;;;;;8.54;100.00;102579.88;6217784;23;20410;-64
2021/12/13 08:46:43;;;;;;;24.35;14.85;;;;;;;8.59;100.00;102578.25;6215799;23;20008;-63
2021/12/13 08:49:20;;;;;;;27.20;15.38;;;;;;;8.53;100.00;102568.53;6217158;23;20016;-63
2021/12/13 08:52:23;;;;;;;25.35;15.38;;;;;;;8.55;100.00;102579.91;6218093;23;20014;-63
2021/12/13 08:54:52;;;;;;;24.70;15.00;;;;;;;8.59;100.00;102578.25;6217982;23;20005;-63
2021/12/13 08:57:45;;;;;;;23.10;13.95;;;;;;;8.66;100.00;102583.63;6218289;23;20008;-63
2021/12/13 09:00:13;;;;;;;23.33;14.20;;;;;;;8.61;100.00;102584.38;6217785;23;20048;-64
2021/12/13 09:02:43;;;;;;;22.15;14.25;;;;;;;8.52;100.00;102582.44;6217840;23;20000;-63
2021/12/13 09:05:16;;;;;;;23.02;14.45;;;;;;;8.54;100.00;102580.75;6218082;23;20035;-63
2021/12/13 09:07:52;;;;;;;23.10;13.82;;;;;;;8.58;100.00;102577.38;6218007;23;20004;-63
2021/12/13 09:10:21;;;;;;;24.23;13.65;;;;;;;8.58;100.00;102587.81;6217332;23;20004;-64
2021/12/13 09:12:47;;;;;;;22.17;13.50;;;;;;;8.62;100.00;102589.66;6217794;23;20004;-63
2021/12/13 09:15:31;;;;;;;20.70;13.38;;;;;;;8.69;100.00;102588.03;6215962;23;20015;-63
2021/12/13 09:17:57;;;;;;;23.55;13.77;;;;;;;8.63;100.00;102595.75;6218300;23;20011;-63
2021/12/13 09:20:29;;;;;;;22.38;13.25;;;;;;;8.67;100.00;102594.94;6217775;23;20005;-63
2021/12/13 09:23:19;;;;;;;22.02;12.55;;;;;;;8.66;100.00;102596.66;6217789;23;20008;-63
2021/12/13 09:25:47;;;;;;;24.10;14.05;;;;;;;8.71;100.00;102592.44;6217575;23;20001;-63
2021/12/13 09:28:18;;;;;;;22.50;13.82;;;;;;;8.67;100.00;102603.66;6217713;23;20398;-63
2021/12/13 09:31:27;;;;;;;25.63;14.57;;;;;;;8.60;100.00;102600.91;6217885;23;20013;-63
2021/12/13 09:33:59;;;;;;;21.10;13.23;;;;;;;8.63;100.00;102607.06;6183717;23;20023;-63
2021/12/13 09:36:27;;;;;;;20.75;12.02;;;;;;;8.72;100.00;102622.03;6217731;23;20063;-64
2021/12/13 09:39:00;;;;;;;22.58;13.57;;;;;;;8.62;100.00;102623.56;6217844;23;20004;-63
2021/12/13 09:41:46;;;;;;;19.75;11.65;;;;;;;8.70;100.00;102621.13;6217399;23;20020;-64
2021/12/13 09:44:12;;;;;;;19.55;11.50;;;;;;;8.67;100.00;102628.88;6217412;23;20007;-64
2021/12/13 09:46:46;;;;;;;18.70;11.93;;;;;;;8.70;100.00;102642.88;6217472;23;20004;-63
2021/12/13 09:49:15;;;;;;;19.38;12.10;;;;;;;8.80;100.00;102645.72;6217588;23;20009;-63
2021/12/13 09:51:49;;;;;;;19.25;12.00;;;;;;;8.68;100.00;102647.19;6217467;23;20001;-63
2021/12/13 09:54:23;;;;;;;20.50;12.63;;;;;;;8.73;100.00;102657.72;6217022;23;20063;-63
2021/12/13 09:56:51;;;;;;;20.42;12.65;;;;;;;8.66;100.00;102650.59;6217359;23;20031;-63
2021/12/13 09:59:27;;;;;;;17.92;11.98;;;;;;;8.67;100.00;102657.56;6217412;23;20012;-63
2021/12/13 10:01:57;;;;;;;18.00;11.70;;;;;;;8.69;100.00;102654.16;6217074;23;20015;-63
2021/12/13 10:04:34;;;;;;;17.73;11.27;;;;;;;8.71;100.00;102665.53;6217188;23;20000;-63
2021/12/13 10:07:36;;;;;;;17.17;11.40;;;;;;;8.78;100.00;102663.94;6217629;23;20008;-64
2021/12/13 10:10:08;;;;;;;14.57;10.02;;;;;;;8.81;100.00;102665.75;6169796;23;20570;-63
2021/12/13 10:12:41;;;;;;;15.45;9.98;;;;;;;8.69;100.00;102654.16;6217253;23;20005;-64
2021/12/13 10:15:07;;;;;;;16.75;9.40;;;;;;;8.71;100.00;102655.09;6217045;23;20011;-63
2021/12/13 10:17:37;;;;;;;16.33;9.70;;;;;;;8.71;100.00;102652.47;6217123;23;20009;-64
2021/12/13 10:20:26;;;;;;;15.00;9.48;;;;;;;8.70;100.00;102647.22;6216712;23;20009;-62
2021/12/13 10:22:52;;;;;;;16.45;9.45;;;;;;;8.68;100.00;102644.56;6205408;23;20008;-63
2021/12/13 10:25:22;;;;;;;16.17;10.05;;;;;;;8.68;100.00;102644.56;6217108;23;20012;-60
2021/12/13 10:27:48;;;;;;;15.60;9.18;;;;;;;8.70;100.00;102640.28;6217378;23;20012;-63
2021/12/13 10:30:22;;;;;;;18.58;9.93;;;;;;;8.72;100.00;102646.41;6216934;23;20042;-62
2021/12/13 10:32:48;;;;;;;16.85;10.20;;;;;;;8.71;100.00;102651.59;6217114;23;20310;-62
2021/12/13 10:35:18;;;;;;;14.85;9.35;;;;;;;8.77;100.00;102650.88;6217093;23;20014;-62
2021/12/13 10:37:50;;;;;;;13.57;8.65;;;;;;;8.76;100.00;102647.38;6216881;23;20275;-63
2021/12/13 10:40:22;;;;;;;15.18;8.65;;;;;;;8.76;100.00;102649.97;6217116;23;20074;-64
2021/12/13 10:42:57;;;;;;;;;;;;;;;8.81;100.00;102644.88;6217770;23;20042;-63
2021/12/13 10:45:28;;;;;;;15.68;8.82;;;;;;;8.78;100.00;102642.19;6217296;23;19911;-62
2021/12/13 10:47:57;;;;;;;15.50;8.27;;;;;;;8.81;100.00;102635.31;6216571;23;20013;-62
2021/12/13 10:50:30;;;;;;;12.77;7.93;;;;;;;8.78;100.00;102636.97;6216864;23;20008;-63
2021/12/13 10:52:58;;;;;;;12.48;7.90;;;;;;;8.84;100.00;102642.31;6216862;23;20012;-63
2021/12/13 10:55:28;;;;;;;13.15;8.20;;;;;;;8.77;100.00;102629.97;6217031;23;20066;-63
2021/12/13 10:57:55;;;;;;;14.00;8.80;;;;;;;8.62;100.00;102607.91;6217188;23;20009;-62
2021/12/13 11:00:30;;;;;;;14.65;9.05;;;;;;;8.76;100.00;102636.94;6217311;23;20008;-62
2021/12/13 11:03:08;;;;;;;16.10;8.77;;;;;;;8.79;100.00;102646.56;6216712;23;20001;-63
2021/12/13 11:05:34;;;;;;;12.00;7.95;;;;;;;8.81;100.00;102640.53;6217228;23;20020;-63
2021/12/13 11:08:05;;;;;;;11.18;7.82;;;;;;;8.79;100.00;102644.84;6217179;23;20015;-63
2021/12/13 11:10:36;;;;;;;13.90;8.75;;;;;;;8.76;100.00;102625.59;6216935;23;20472;-62
2021/12/13 11:13:02;;;;;;;14.13;8.52;;;;;;;8.82;100.00;102624.03;6216702;23;20051;-63
2021/12/13 11:15:32;;;;;;;13.63;8.18;;;;;;;8.85;100.00;102625.78;6216755;23;20421;-64
2021/12/13 11:17:59;;;;;;;12.55;7.72;;;;;;;8.83;100.00;102620.53;6217063;23;20004;-62
2021/12/13 11:20:29;;;;;;;12.68;7.65;;;;;;;8.90;100.00;102622.44;6216712;23;20414;-62
2021/12/13 11:22:54;;;;;;;14.48;8.50;;;;;;;8.82;100.00;102615.31;6216450;23;20293;-63
2021/12/13 11:25:34;;;;;;;13.73;8.00;;;;;;;8.85;100.00;102617.97;6216971;23;20092;-64
2021/12/13 11:28:00;;;;;;;13.10;8.48;;;;;;;8.86;100.00;102617.13;6216872;23;20225;-64
2021/12/13 11:30:32;;;;;;;14.27;8.98;;;;;;;8.86;100.00;102618.00;6217398;23;20039;-63
2021/12/13 11:32:57;;;;;;;11.85;7.53;;;;;;;8.93;100.00;102624.25;6216937;23;20036;-63
2021/12/13 11:35:44;;;;;;;10.88;7.43;;;;;;;8.98;100.00;102628.72;6217605;23;20015;-63
2021/12/13 11:38:55;;;;;;;11.70;7.50;;;;;;;8.96;100.00;102622.59;6217048;23;20005;-63
2021/12/13 11:41:49;;;;;;;12.85;8.18;;;;;;;8.97;100.00;102615.66;6216780;23;20013;-63
2021/12/13 11:44:57;;;;;;;12.07;8.10;;;;;;;8.98;100.00;102614.78;6217105;23;20005;-63
2021/12/13 11:48:03;;;;;;;10.75;7.18;;;;;;;8.93;100.00;102608.59;6217472;23;20015;-63
2021/12/13 11:50:53;;;;;;;10.02;7.35;;;;;;;9.02;100.00;102614.88;6218927;23;20000;-63
2021/12/13 11:53:30;;;;;;;9.00;6.57;;;;;;;9.06;100.00;102621.03;6218254;23;20012;-63
2021/12/13 11:56:26;;;;;;;11.57;7.45;;;;;;;9.07;100.00;102614.97;6218427;23;20008;-63